地図

経路データ

SID SEASON NUMBER BASIN SUBBASIN NAME ISO_TIME NATURE LAT LON WMO_WIND WMO_PRES WMO_AGENCY TRACK_TYPE DIST2LAND LANDFALL IFLAG USA_AGENCY USA_ATCF_ID USA_LAT USA_LON USA_RECORD USA_STATUS USA_WIND USA_PRES USA_SSHS USA_R34_NE USA_R34_SE USA_R34_SW USA_R34_NW USA_R50_NE USA_R50_SE USA_R50_SW USA_R50_NW USA_R64_NE USA_R64_SE USA_R64_SW USA_R64_NW USA_POCI USA_ROCI USA_RMW USA_EYE TOKYO_LAT TOKYO_LON TOKYO_GRADE TOKYO_WIND TOKYO_PRES TOKYO_R50_DIR TOKYO_R50_LONG TOKYO_R50_SHORT TOKYO_R30_DIR TOKYO_R30_LONG TOKYO_R30_SHORT TOKYO_LAND CMA_LAT CMA_LON CMA_CAT CMA_WIND CMA_PRES HKO_LAT HKO_LON HKO_CAT HKO_WIND HKO_PRES NEWDELHI_LAT NEWDELHI_LON NEWDELHI_GRADE NEWDELHI_WIND NEWDELHI_PRES NEWDELHI_CI NEWDELHI_DP NEWDELHI_POCI REUNION_LAT REUNION_LON REUNION_TYPE REUNION_WIND REUNION_PRES REUNION_TNUM REUNION_CI REUNION_RMW REUNION_R34_NE REUNION_R34_SE REUNION_R34_SW REUNION_R34_NW REUNION_R50_NE REUNION_R50_SE REUNION_R50_SW REUNION_R50_NW REUNION_R64_NE REUNION_R64_SE REUNION_R64_SW REUNION_R64_NW BOM_LAT BOM_LON BOM_TYPE BOM_WIND BOM_PRES BOM_TNUM BOM_CI BOM_RMW BOM_R34_NE BOM_R34_SE BOM_R34_SW BOM_R34_NW BOM_R50_NE BOM_R50_SE BOM_R50_SW BOM_R50_NW BOM_R64_NE BOM_R64_SE BOM_R64_SW BOM_R64_NW BOM_ROCI BOM_POCI BOM_EYE BOM_POS_METHOD BOM_PRES_METHOD NADI_LAT NADI_LON NADI_CAT NADI_WIND NADI_PRES WELLINGTON_LAT WELLINGTON_LON WELLINGTON_WIND WELLINGTON_PRES DS824_LAT DS824_LON DS824_STAGE DS824_WIND DS824_PRES TD9636_LAT TD9636_LON TD9636_STAGE TD9636_WIND TD9636_PRES TD9635_LAT TD9635_LON TD9635_WIND TD9635_PRES TD9635_ROCI NEUMANN_LAT NEUMANN_LON NEUMANN_CLASS NEUMANN_WIND NEUMANN_PRES MLC_LAT MLC_LON MLC_CLASS MLC_WIND MLC_PRES USA_GUST BOM_GUST BOM_GUST_PER REUNION_GUST REUNION_GUST_PER USA_SEAHGT USA_SEARAD_NE USA_SEARAD_SE USA_SEARAD_SW USA_SEARAD_NW STORM_SPEED STORM_DIR
1921362S17043 1922 74 SI MM NOT_NAMED 1921-12-28 06:00:00 NR -16.7000 42.6000 reunion main 164 164 _____O________ -1 -16.7000 42.6000 99 9.90000 0 0
1921362S17043 1922 74 SI MM NOT_NAMED 1921-12-28 09:00:00 NR -16.7178 42.6080 main 164 164 _____P________ -1 -16.7178 42.6080 99 0 0
1921362S17043 1922 74 SI MM NOT_NAMED 1921-12-28 12:00:00 NR -16.7422 42.6153 main 164 158 _____P________ -1 -16.7422 42.6153 99 1 0
1921362S17043 1922 74 SI MM NOT_NAMED 1921-12-28 15:00:00 NR -16.7799 42.6210 main 158 158 _____P________ -1 -16.7799 42.6210 99 1 170
1921362S17043 1922 74 SI MM NOT_NAMED 1921-12-28 18:00:00 NR -16.8376 42.6244 main 158 153 _____P________ -1 -16.8376 42.6244 99 1 174
1921362S17043 1922 74 SI MM NOT_NAMED 1921-12-28 21:00:00 NR -16.9217 42.6248 main 153 148 _____P________ -1 -16.9217 42.6248 99 2 183
1921362S17043 1922 74 SI MM NOT_NAMED 1921-12-29 00:00:00 NR -17.0391 42.6214 main 148 142 _____P________ -1 -17.0391 42.6214 99 3 0
1921362S17043 1922 74 SI MM NOT_NAMED 1921-12-29 03:00:00 NR -17.1963 42.6134 main 142 138 _____P________ -1 -17.1963 42.6134 99 4 0
1921362S17043 1922 74 SI MM NOT_NAMED 1921-12-29 06:00:00 NR -17.4000 42.6000 reunion main 138 137 _____O________ -1 -17.4000 42.6000 99 9.90000 5 185
1921362S17043 1922 74 SI MM NOT_NAMED 1921-12-29 09:00:00 NR -17.6539 42.5810 main 139 139 _____P________ -1 -17.6539 42.5810 99 6 184
1921362S17043 1922 74 SI MM NOT_NAMED 1921-12-29 12:00:00 NR -17.9500 42.5585 main 148 147 _____P________ -1 -17.9500 42.5585 99 6 183
1921362S17043 1922 74 SI MM NOT_NAMED 1921-12-29 15:00:00 NR -18.2774 42.5351 main 158 158 _____P________ -1 -18.2774 42.5351 99 7 183
1921362S17043 1922 74 SI MM NOT_NAMED 1921-12-29 18:00:00 NR -18.6251 42.5135 main 159 159 _____P________ -1 -18.6251 42.5135 99 7 183
1921362S17043 1922 74 SI MM NOT_NAMED 1921-12-29 21:00:00 NR -18.9821 42.4965 main 171 171 _____P________ -1 -18.9821 42.4965 99 7 0
1921362S17043 1922 74 SI MM NOT_NAMED 1921-12-30 00:00:00 NR -19.3376 42.4867 main 179 179 _____P________ -1 -19.3376 42.4867 99 7 182
1921362S17043 1922 74 SI MM NOT_NAMED 1921-12-30 03:00:00 NR -19.6805 42.4869 main 189 171 _____P________ -1 -19.6805 42.4869 99 7 0
1921362S17043 1922 74 SI MM NOT_NAMED 1921-12-30 06:00:00 NR -20.0000 42.5000 reunion main 171 160 _____O________ -1 -20.0000 42.5000 99 9.90000 6 0
1921362S17043 1922 74 SI MM NOT_NAMED 1921-12-30 09:00:00 NR -20.2473 42.4598 main 160 152 _____P________ -1 -20.2473 42.4598 99 5 188
1921362S17043 1922 74 SI MM NOT_NAMED 1921-12-30 12:00:00 NR -20.4748 42.4230 main 152 138 _____P________ -1 -20.4748 42.4230 99 4 188
1921362S17043 1922 74 SI MM NOT_NAMED 1921-12-30 15:00:00 NR -20.6873 42.4025 main 138 127 _____P________ -1 -20.6873 42.4025 99 4 0
1921362S17043 1922 74 SI MM NOT_NAMED 1921-12-30 18:00:00 NR -20.8900 42.4112 main 127 108 _____P________ -1 -20.8900 42.4112 99 4 173
1921362S17043 1922 74 SI MM NOT_NAMED 1921-12-30 21:00:00 NR -21.0877 42.4621 main 108 93 _____P________ -1 -21.0877 42.4621 99 4 159
1921362S17043 1922 74 SI MM NOT_NAMED 1921-12-31 00:00:00 NR -21.2853 42.5684 main 93 79 _____P________ -1 -21.2853 42.5684 99 5 147
1921362S17043 1922 74 SI MM NOT_NAMED 1921-12-31 03:00:00 NR -21.4879 42.7433 main 79 42 _____P________ -1 -21.4879 42.7433 99 6 136
1921362S17043 1922 74 SI MM NOT_NAMED 1921-12-31 06:00:00 NR -21.7000 43.0000 reunion main 42 10 _____O________ -1 -21.7000 43.0000 99 9.90000 7 130
1921362S17043 1922 74 SI MM NOT_NAMED 1921-12-31 09:00:00 NR -21.9623 43.3624 main 0 0 _____P________ -1 -21.9623 43.3624 99 9 125
1921362S17043 1922 74 SI MM NOT_NAMED 1921-12-31 12:00:00 NR -22.2338 43.8082 main 0 0 _____P________ -1 -22.2338 43.8082 99 10 121
1921362S17043 1922 74 SI MM NOT_NAMED 1921-12-31 15:00:00 NR -22.5080 44.3245 main 0 0 _____P________ -1 -22.5080 44.3245 99 11 118
1921362S17043 1922 74 SI MM NOT_NAMED 1921-12-31 18:00:00 NR -22.7785 44.8982 main 0 0 _____P________ -1 -22.7785 44.8982 99 12 116
1921362S17043 1922 74 SI MM NOT_NAMED 1921-12-31 21:00:00 NR -23.0389 45.5162 main 0 0 _____P________ -1 -23.0389 45.5162 99 13 113
1921362S17043 1922 74 SI MM NOT_NAMED 1922-01-01 00:00:00 NR -23.2833 46.1649 main 0 0 _____P________ -1 -23.2833 46.1649 99 13 111
1921362S17043 1922 74 SI MM NOT_NAMED 1922-01-01 03:00:00 NR -23.5055 46.8308 main 0 0 _____P________ -1 -23.5055 46.8308 99 13 109
1921362S17043 1922 74 SI MM NOT_NAMED 1922-01-01 06:00:00 NR -23.7000 47.5000 reunion main 0 0 _____O________ -1 -23.7000 47.5000 99 9.90000 13 106
1921362S17043 1922 74 SI MM NOT_NAMED 1922-01-01 09:00:00 NR -23.8628 48.1611 main 69 69 _____P________ -1 -23.8628 48.1611 99 12 104
1921362S17043 1922 74 SI MM NOT_NAMED 1922-01-01 12:00:00 NR -23.9964 48.8129 main 129 129 _____P________ -1 -23.9964 48.8129 99 12 102
1921362S17043 1922 74 SI MM NOT_NAMED 1922-01-01 15:00:00 NR -24.1047 49.4565 main 199 199 _____P________ -1 -24.1047 49.4565 99 12 99
1921362S17043 1922 74 SI MM NOT_NAMED 1922-01-01 18:00:00 NR -24.1914 50.0933 main 259 259 _____P________ -1 -24.1914 50.0933 99 12 98
1921362S17043 1922 74 SI MM NOT_NAMED 1922-01-01 21:00:00 NR -24.2605 50.7247 main 321 321 _____P________ -1 -24.2605 50.7247 99 12 96
1921362S17043 1922 74 SI MM NOT_NAMED 1922-01-02 00:00:00 NR -24.3158 51.3520 main 389 389 _____P________ -1 -24.3158 51.3520 99 11 95
1921362S17043 1922 74 SI MM NOT_NAMED 1922-01-02 03:00:00 NR -24.3611 51.9766 main 450 443 _____P________ -1 -24.3611 51.9766 99 11 94
1921362S17043 1922 74 SI MM NOT_NAMED 1922-01-02 06:00:00 NR -24.4000 52.6000 reunion main 443 _____O________ -1 -24.4000 52.6000 99 9.90000 11 94

IBTrACS Databaseについて

本データベースは、米国NOAAが公開する1842年以降の世界の熱帯低気圧のベストトラックデータアーカイブInternational Best Track Archive for Climate Stewardship (IBTrACS)を、ウェブで閲覧しやすい形式に変換したものです。

最終更新日:2021-10-25